Belleville, New York
Current Conditions -  °F | °C
As of 6:56 AM on Monday 20 Oct 2014 (Local Time) from KART Reporting Station
Overcast Overcast  
Wind Chill: 38°   Ceiling: 9500
Heat Index: 42°   Visibility: 10mi
Dew Point: 33°   Wind: 6mph
Humidity: 70%   Direction: 170°S
Pressure: 29.96"   Gusts: NA
Location:  43.78°N, 76.12°W
Report Text: KART 201056Z AUTO 17005KT 10SM BKN095 OVC120 06/01 A2996 RMK AO2 SLP146 T00560006
Loading
Personal Weather Stations






























Interactive Weather Map
Tropical Storm Tracking
New forecast layout! Learn more

10-Day Weather Forecast

Advertisements
Track Severe Weather on mobile